Time;durP1;ratioP1;P1;durP2;ratioP2;P2;SDS_P1;SDS_P2;PMS_P1;PMS_P2;Temp;Humidity;BMP_temperature;BMP_pressure;BME280_temperature;BME280_humidity;BME280_pressure;Samples;Min_cycle;Max_cycle;Signal;HPM_P1;HPM_P2
2022/03/05 00:01:58;;;;;;;45.10;16.50;;;;;;;0.52;100.00;101902.59;5236786;28;20051;-79
2022/03/05 00:04:29;;;;;;;46.90;16.35;;;;;;;0.42;100.00;101902.19;5237980;28;20025;-79
2022/03/05 00:06:59;;;;;;;41.45;15.18;;;;;;;0.35;100.00;101903.44;5204057;28;20025;-78
2022/03/05 00:09:30;;;;;;;37.03;14.68;;;;;;;0.29;100.00;101903.72;5225361;28;20409;-79
2022/03/05 00:12:00;;;;;;;42.10;16.45;;;;;;;0.24;100.00;101913.63;5227045;28;20036;-78
2022/03/05 00:14:31;;;;;;;43.78;16.38;;;;;;;0.17;100.00;101905.16;5226411;28;20559;-78
2022/03/05 00:17:01;;;;;;;38.58;15.25;;;;;;;0.10;100.00;101902.88;5226954;28;20024;-79
2022/03/05 00:19:32;;;;;;;38.63;15.23;;;;;;;0.05;100.00;101904.88;5226818;28;20060;-78
2022/03/05 00:22:03;;;;;;;40.85;16.13;;;;;;;-0.01;100.00;101896.34;5226509;28;20370;-78
2022/03/05 00:24:33;;;;;;;57.22;19.92;;;;;;;-0.04;100.00;101903.56;5226816;28;20040;-79
2022/03/05 00:27:04;;;;;;;55.88;19.90;;;;;;;-0.09;100.00;101905.56;5226973;28;20052;-78
2022/03/05 00:29:34;;;;;;;54.53;18.80;;;;;;;-0.15;100.00;101905.81;5229750;28;20029;-79
2022/03/05 00:32:05;;;;;;;48.97;17.33;;;;;;;-0.19;100.00;101896.38;5236252;28;20307;-79
2022/03/05 00:34:36;;;;;;;46.33;17.92;;;;;;;-0.24;100.00;101901.00;5225524;28;20108;-79
2022/03/05 00:37:08;;;;;;;40.85;16.50;;;;;;;-0.28;100.00;101903.78;5220799;28;20031;-80
2022/03/05 00:39:39;;;;;;;47.00;14.93;;;;;;;-0.30;100.00;101900.38;5232891;28;20060;-80
2022/03/05 00:42:09;;;;;;;37.47;13.73;;;;;;;-0.29;100.00;101898.56;5229475;28;20060;-79
2022/03/05 00:44:40;;;;;;;39.10;14.68;;;;;;;-0.30;100.00;101912.69;5227013;28;20107;-79
2022/03/05 00:47:11;;;;;;;40.67;15.68;;;;;;;-0.31;100.00;101906.53;5226775;28;20032;-78
2022/03/05 00:49:41;;;;;;;40.17;15.02;;;;;;;-0.30;100.00;101908.28;5226276;28;20381;-78
2022/03/05 00:52:12;;;;;;;39.08;15.63;;;;;;;-0.30;100.00;101902.16;5226334;28;20032;-79
2022/03/05 00:54:42;;;;;;;47.75;16.05;;;;;;;-0.31;100.00;101905.69;5226349;28;20025;-78
2022/03/05 00:57:13;;;;;;;49.22;15.43;;;;;;;-0.33;100.00;101913.69;5228220;28;20025;-78
2022/03/05 00:59:43;;;;;;;39.60;15.20;;;;;;;-0.39;100.00;101907.84;5228767;28;20098;-79
2022/03/05 01:02:14;;;;;;;39.45;13.95;;;;;;;-0.42;100.00;101911.44;5228824;28;20036;-78
2022/03/05 01:04:44;;;;;;;35.67;13.73;;;;;;;-0.42;100.00;101913.22;5217131;28;20454;-79
2022/03/05 01:07:15;;;;;;;37.63;15.15;;;;;;;-0.37;100.00;101914.72;5229097;28;20114;-78
2022/03/05 01:09:45;;;;;;;39.80;14.57;;;;;;;-0.37;100.00;101919.16;5220256;28;20075;-78
2022/03/05 01:12:17;;;;;;;40.67;14.73;;;;;;;-0.45;100.00;101910.72;5225747;28;20813;-78
2022/03/05 01:14:48;;;;;;;41.15;15.52;;;;;;;-0.53;100.00;101921.63;5229638;28;20492;-80
2022/03/05 01:17:19;;;;;;;46.90;14.48;;;;;;;-0.58;100.00;101926.25;5229235;28;20025;-80
2022/03/05 01:19:49;;;;;;;45.42;16.13;;;;;;;-0.37;100.00;101927.06;5229669;28;20074;-80
2022/03/05 01:22:20;;;;;;;41.22;14.75;;;;;;;-0.37;100.00;101927.06;5230508;28;20017;-80
2022/03/05 01:24:50;;;;;;;39.85;15.45;;;;;;;-0.45;100.00;101922.16;5210544;28;20396;-80
2022/03/05 01:27:22;;;;;;;43.80;15.50;;;;;;;-0.56;100.00;101919.97;5229992;28;20084;-79
2022/03/05 01:29:52;;;;;;;43.05;15.32;;;;;;;-0.64;100.00;101919.47;5232352;28;20032;-80
2022/03/05 01:32:23;;;;;;;43.10;15.20;;;;;;;-0.72;100.00;101924.22;5230575;28;20025;-80
2022/03/05 01:34:54;;;;;;;40.20;15.38;;;;;;;-0.79;100.00;101918.38;5212439;28;20024;-80
2022/03/05 01:37:24;;;;;;;48.38;16.95;;;;;;;-0.87;100.00;101914.34;5230820;28;20024;-80
2022/03/05 01:39:55;;;;;;;40.92;16.00;;;;;;;-0.95;100.00;101916.47;5228602;28;20112;-80
2022/03/05 01:42:26;;;;;;;49.30;15.43;;;;;;;-1.00;100.00;101919.31;5234494;28;20029;-80
2022/03/05 01:44:56;;;;;;;40.03;14.63;;;;;;;-1.04;100.00;101917.72;5231045;28;20052;-79
2022/03/05 01:47:27;;;;;;;38.95;14.27;;;;;;;-1.08;100.00;101924.03;5236159;28;20025;-78
2022/03/05 01:49:58;;;;;;;45.40;15.02;;;;;;;-1.14;100.00;101913.78;5234922;28;20021;-80
2022/03/05 01:52:28;;;;;;;42.88;15.20;;;;;;;-1.19;100.00;101913.13;5233649;28;20088;-80
2022/03/05 01:54:59;;;;;;;40.88;15.50;;;;;;;-1.23;100.00;101914.16;5218294;28;20025;-80
2022/03/05 01:57:29;;;;;;;37.97;14.55;;;;;;;-1.28;100.00;101911.72;5231285;28;20021;-79
2022/03/05 02:00:01;;;;;;;38.00;14.27;;;;;;;-1.33;100.00;101914.53;5235685;28;20029;-81
2022/03/05 02:02:31;;;;;;;46.00;15.73;;;;;;;-1.33;100.00;101921.59;5232824;28;20035;-79
2022/03/05 02:05:03;;;;;;;36.90;15.18;;;;;;;-1.28;100.00;101914.34;5231579;28;20473;-80
2022/03/05 02:07:46;;;;;;;43.83;15.65;;;;;;;-1.36;100.00;101917.28;5231875;28;20033;-80
2022/03/05 02:10:17;;;;;;;44.15;15.52;;;;;;;-1.43;100.00;101909.72;5230958;28;20075;-79
2022/03/05 02:12:47;;;;;;;47.97;15.50;;;;;;;-1.53;100.00;101916.28;5231034;28;20029;-80
2022/03/05 02:15:18;;;;;;;43.00;14.98;;;;;;;-1.62;100.00;101914.88;5206872;28;20025;-80
2022/03/05 02:17:48;;;;;;;42.38;15.57;;;;;;;-1.65;100.00;101917.66;5221625;28;20108;-80
2022/03/05 02:20:19;;;;;;;50.97;14.93;;;;;;;-1.52;100.00;101913.56;5231331;28;20059;-80
2022/03/05 02:22:49;;;;;;;46.08;14.18;;;;;;;-1.50;100.00;101911.75;5217833;28;20052;-79
2022/03/05 02:25:20;;;;;;;37.15;14.82;;;;;;;-1.52;100.00;101918.84;5230194;28;20029;-79
2022/03/05 02:27:51;;;;;;;43.38;14.45;;;;;;;-1.58;100.00;101912.06;5228704;28;20028;-80
2022/03/05 02:30:21;;;;;;;48.88;14.50;;;;;;;-1.66;100.00;101916.75;5225626;28;20025;-78
2022/03/05 02:32:52;;;;;;;49.38;17.08;;;;;;;-1.71;100.00;101912.59;5223128;28;20362;-78
2022/03/05 02:35:22;;;;;;;41.13;15.90;;;;;;;-1.77;100.00;101908.44;5218435;28;20044;-79
2022/03/05 02:37:54;;;;;;;52.53;15.88;;;;;;;-1.81;100.00;101906.84;5224898;28;20024;-79
2022/03/05 02:40:25;;;;;;;44.22;15.35;;;;;;;-1.84;100.00;101905.22;5219223;28;20094;-80
2022/03/05 02:42:56;;;;;;;51.40;16.17;;;;;;;-1.86;100.00;101907.06;5226533;28;20115;-80
2022/03/05 02:45:26;;;;;;;42.35;14.75;;;;;;;-1.87;100.00;101900.06;5224548;28;20021;-81
2022/03/05 02:47:57;;;;;;;43.42;15.25;;;;;;;-1.89;100.00;101901.91;5224873;28;20392;-80
2022/03/05 02:50:29;;;;;;;44.30;15.82;;;;;;;-1.90;100.00;101896.72;5226003;28;20099;-80
2022/03/05 02:53:00;;;;;;;50.28;16.77;;;;;;;-1.93;100.00;101905.56;5226612;28;20469;-81
2022/03/05 02:55:31;;;;;;;41.20;16.38;;;;;;;-1.94;100.00;101909.13;5219103;28;20032;-82
2022/03/05 02:58:02;;;;;;;38.90;14.65;;;;;;;-1.97;100.00;101898.72;5216793;28;20052;-81
2022/03/05 03:00:43;;;;;;;42.90;14.95;;;;;;;-2.00;100.00;101901.50;5236408;28;20021;-81
2022/03/05 03:03:13;;;;;;;50.50;15.70;;;;;;;-2.02;100.00;101899.81;5234584;28;20112;-80
2022/03/05 03:05:44;;;;;;;46.55;15.27;;;;;;;-2.06;100.00;101901.69;5217485;28;20111;-80
2022/03/05 03:08:28;;;;;;;43.80;15.82;;;;;;;-2.09;100.00;101907.09;5235865;28;20120;-81
2022/03/05 03:11:00;;;;;;;42.38;15.90;;;;;;;-2.10;100.00;101898.34;5227569;28;20053;-79
2022/03/05 03:13:30;;;;;;;45.70;16.38;;;;;;;-2.11;100.00;101895.75;5228090;28;20025;-80
2022/03/05 03:16:01;;;;;;;46.67;16.23;;;;;;;-2.10;100.00;101905.38;5217935;28;20045;-79
2022/03/05 03:18:32;;;;;;;52.90;16.58;;;;;;;-2.10;100.00;101902.75;5224373;28;20450;-79
2022/03/05 03:21:03;;;;;;;45.95;16.13;;;;;;;-2.14;100.00;101904.66;5200839;28;20035;-81
2022/03/05 03:23:34;;;;;;;46.67;16.58;;;;;;;-2.19;100.00;101903.09;5220142;28;20082;-81
2022/03/05 03:26:04;;;;;;;39.65;14.70;;;;;;;-2.22;100.00;101903.22;5225666;28;20028;-79
2022/03/05 03:28:34;;;;;;;46.05;16.02;;;;;;;-2.24;100.00;101907.69;5234452;28;20021;-79
2022/03/05 03:31:05;;;;;;;45.90;15.75;;;;;;;-2.27;100.00;101911.28;5235663;28;20036;-80
2022/03/05 03:33:35;;;;;;;46.20;15.48;;;;;;;-2.31;100.00;101906.19;5222414;28;20018;-80
2022/03/05 03:36:06;;;;;;;38.88;14.55;;;;;;;-2.36;100.00;101911.63;5214731;28;20056;-79
2022/03/05 03:38:36;;;;;;;54.58;17.67;;;;;;;-2.37;100.00;101925.69;5225137;28;20500;-79
2022/03/05 03:41:07;;;;;;;43.83;16.08;;;;;;;-2.39;100.00;101923.13;5231381;28;20559;-80
2022/03/05 03:43:37;;;;;;;44.58;16.10;;;;;;;-2.40;100.00;101917.91;5219260;28;20057;-79
2022/03/05 03:46:08;;;;;;;51.10;16.98;;;;;;;-2.39;100.00;101915.22;5225584;28;20075;-79
2022/03/05 03:48:39;;;;;;;41.75;15.75;;;;;;;-2.39;100.00;101917.00;5223810;28;20055;-79
2022/03/05 03:51:09;;;;;;;48.80;17.10;;;;;;;-2.37;100.00;101915.16;5209883;28;20485;-79
2022/03/05 03:53:40;;;;;;;47.42;15.07;;;;;;;-2.36;100.00;101917.75;5206504;28;20029;-80
2022/03/05 03:56:10;;;;;;;54.38;16.48;;;;;;;-2.32;100.00;101933.38;5223750;28;20025;-79
2022/03/05 03:58:41;;;;;;;44.05;15.15;;;;;;;-2.31;100.00;101927.22;5215234;28;20025;-79
2022/03/05 04:01:12;;;;;;;49.47;16.30;;;;;;;-2.32;100.00;101915.00;5222533;28;20020;-79
2022/03/05 04:03:42;;;;;;;50.00;15.43;;;;;;;-2.34;100.00;101920.31;5213903;28;20036;-78
2022/03/05 04:06:13;;;;;;;40.42;14.45;;;;;;;-2.37;100.00;101921.28;5226362;28;20021;-77
2022/03/05 04:08:49;;;;;;;46.42;14.82;;;;;;;-2.42;100.00;101914.47;5227953;28;20120;-79
2022/03/05 04:11:21;;;;;;;50.17;15.27;;;;;;;-2.47;100.00;101914.66;5227448;28;20082;-80
2022/03/05 04:13:51;;;;;;;46.03;15.93;;;;;;;-2.52;100.00;101921.00;5223824;28;20071;-80
2022/03/05 04:16:22;;;;;;;49.20;16.10;;;;;;;-2.56;100.00;101917.63;5218171;28;20028;-79
2022/03/05 04:18:52;;;;;;;44.28;16.35;;;;;;;-2.58;100.00;101915.97;5240902;23;20044;-78
2022/03/05 04:21:23;;;;;;;50.53;16.92;;;;;;;-2.61;100.00;101924.81;5240304;28;20040;-78
2022/03/05 04:23:53;;;;;;;48.72;15.18;;;;;;;-2.62;100.00;101920.47;5243667;28;20229;-78
2022/03/05 04:26:24;;;;;;;42.60;14.57;;;;;;;-2.65;100.00;101925.84;5240197;28;20025;-78
2022/03/05 04:28:54;;;;;;;50.85;16.58;;;;;;;-2.69;100.00;101927.72;5228404;28;20020;-79
2022/03/05 04:34:37;;;;;;;47.80;15.23;;;;;;;-2.80;100.00;101921.16;5230459;28;20109;-79
2022/03/05 04:37:08;;;;;;;45.70;16.65;;;;;;;-2.84;100.00;101920.38;5232244;28;20029;-79
2022/03/05 04:39:38;;;;;;;51.45;17.65;;;;;;;-2.85;100.00;101915.19;5226894;28;20039;-77
2022/03/05 04:42:09;;;;;;;56.92;18.63;;;;;;;-2.88;100.00;101918.78;5227939;28;20033;-79
2022/03/05 04:44:39;;;;;;;47.33;16.25;;;;;;;-2.92;100.00;101920.63;5227244;28;20067;-77
2022/03/05 04:47:10;;;;;;;42.03;15.20;;;;;;;-2.93;100.00;101920.72;5228518;28;20048;-78
2022/03/05 04:49:40;;;;;;;47.33;15.15;;;;;;;-2.94;100.00;101927.72;5228239;28;20056;-78
2022/03/05 04:52:11;;;;;;;41.78;15.98;;;;;;;-2.93;100.00;101932.06;5226439;28;20044;-79
2022/03/05 04:54:41;;;;;;;50.78;16.50;;;;;;;-2.95;100.00;101931.28;5227483;28;20032;-78
2022/03/05 04:57:12;;;;;;;50.42;17.27;;;;;;;-2.95;100.00;101933.03;5227189;28;20021;-78
2022/03/05 04:59:42;;;;;;;53.05;17.65;;;;;;;-2.95;100.00;101931.28;5227002;28;20048;-78
2022/03/05 05:02:13;;;;;;;44.15;14.70;;;;;;;-3.00;100.00;101934.97;5226136;28;20029;-78
2022/03/05 05:04:43;;;;;;;53.65;15.27;;;;;;;-3.09;100.00;101932.66;5226858;28;20025;-78
2022/03/05 05:07:14;;;;;;;44.95;15.45;;;;;;;-3.18;100.00;101933.81;5213746;28;20497;-78
2022/03/05 05:09:44;;;;;;;54.30;17.33;;;;;;;-3.21;100.00;101939.19;5226002;28;20032;-78
2022/03/05 05:12:15;;;;;;;50.88;15.25;;;;;;;-3.23;100.00;101944.47;5227014;28;20370;-78
2022/03/05 05:14:45;;;;;;;48.42;16.50;;;;;;;-3.24;100.00;101942.75;5226558;28;20525;-78
2022/03/05 05:17:16;;;;;;;43.25;15.48;;;;;;;-3.24;100.00;101947.16;5226796;28;20104;-78
2022/03/05 05:19:46;;;;;;;48.83;17.40;;;;;;;-3.25;100.00;101935.81;5226521;28;20377;-78
2022/03/05 05:22:16;;;;;;;52.83;18.90;;;;;;;-3.30;100.00;101934.25;5225493;28;20061;-78
2022/03/05 05:24:47;;;;;;;51.42;16.75;;;;;;;-3.32;100.00;101933.41;5225180;28;20032;-78
2022/03/05 05:27:17;;;;;;;52.00;16.08;;;;;;;-3.36;100.00;101935.31;5225165;28;20028;-78
2022/03/05 05:29:48;;;;;;;50.33;15.98;;;;;;;-3.26;100.00;101935.84;5213096;28;20387;-78
2022/03/05 05:32:19;;;;;;;46.60;15.95;;;;;;;-3.18;100.00;101933.81;5226464;28;20483;-79
2022/03/05 05:34:49;;;;;;;47.65;15.85;;;;;;;-3.16;100.00;101935.50;5231776;28;20021;-78
2022/03/05 05:37:20;;;;;;;49.90;16.40;;;;;;;-3.16;100.00;101937.25;5226253;28;20473;-78
2022/03/05 05:39:50;;;;;;;51.42;16.38;;;;;;;-3.17;100.00;101944.25;5226055;28;20021;-78
2022/03/05 05:42:21;;;;;;;53.17;16.63;;;;;;;-3.13;100.00;101951.13;5226609;28;20095;-79
2022/03/05 05:51:27;;;;;;;45.03;15.90;;;;;;;-2.94;100.00;101955.75;5225973;28;20123;-79
2022/03/05 05:53:57;;;;;;;50.47;16.70;;;;;;;-3.10;100.00;101954.56;5226035;28;20477;-79
2022/03/05 05:56:28;;;;;;;53.83;16.38;;;;;;;-3.25;100.00;101955.94;5225970;28;20029;-78
2022/03/05 05:59:36;;;;;;;46.38;14.52;;;;;;;-3.40;100.00;101955.53;5226751;28;20104;-82
2022/03/05 06:02:43;;;;;;;49.10;14.57;;;;;;;-3.61;100.00;101956.22;5228918;28;20029;-78
2022/03/05 06:05:13;;;;;;;;;;;;;;;-3.78;100.00;101955.88;5226026;28;20028;-79
2022/03/05 06:07:43;;;;;;;55.88;15.90;;;;;;;-3.84;100.00;101953.44;5231248;28;19915;-80
2022/03/05 06:10:14;;;;;;;54.63;17.20;;;;;;;-3.87;100.00;101951.78;5225568;28;20511;-78
2022/03/05 06:12:45;;;;;;;55.78;19.75;;;;;;;-3.89;100.00;101952.72;5227881;28;20427;-81
2022/03/05 06:15:16;;;;;;;65.03;18.17;;;;;;;-3.91;100.00;101956.28;5228502;28;20064;-80
2022/03/05 06:17:46;;;;;;;55.90;18.50;;;;;;;-3.91;100.00;101955.41;5230709;28;20536;-81
2022/03/05 06:20:17;;;;;;;60.63;20.65;;;;;;;-3.82;100.00;101955.09;5229278;28;20029;-83
2022/03/05 06:22:47;;;;;;;72.22;22.40;;;;;;;-3.76;100.00;101954.09;5228607;28;20504;-81
2022/03/05 06:25:17;;;;;;;83.97;24.58;;;;;;;-3.74;100.00;101957.50;5230416;28;20032;-82
2022/03/05 06:27:48;;;;;;;66.97;20.77;;;;;;;-3.72;100.00;101960.94;5227553;28;20033;-78
2022/03/05 06:30:19;;;;;;;57.55;19.88;;;;;;;-3.70;100.00;101961.75;5225141;28;20041;-78
2022/03/05 06:32:49;;;;;;;62.78;19.92;;;;;;;-3.71;100.00;101957.44;5224999;28;20068;-76
2022/03/05 06:35:20;;;;;;;64.30;19.25;;;;;;;-3.71;100.00;101963.53;5224947;28;20028;-78
2022/03/05 06:37:50;;;;;;;52.20;18.98;;;;;;;-3.66;100.00;101963.38;5225162;28;20029;-78
2022/03/05 06:40:21;;;;;;;53.85;17.42;;;;;;;-3.59;100.00;101967.53;5225469;28;20104;-80
2022/03/05 06:42:51;;;;;;;48.17;18.00;;;;;;;-3.46;100.00;101957.50;5225351;28;20086;-77
2022/03/05 06:45:22;;;;;;;51.45;18.65;;;;;;;-3.33;100.00;101958.81;5224286;28;20033;-77
2022/03/05 06:47:53;;;;;;;55.22;18.38;;;;;;;-3.14;100.00;101959.06;5225065;28;20100;-77
2022/03/05 06:50:23;;;;;;;51.30;17.63;;;;;;;-2.85;100.00;101965.09;5224739;28;20025;-77
2022/03/05 06:52:54;;;;;;;48.38;16.40;;;;;;;-2.65;100.00;101967.88;5224701;28;20388;-77
2022/03/05 06:55:24;;;;;;;56.20;17.63;;;;;;;-2.53;100.00;101964.81;5224092;28;20028;-78
2022/03/05 06:57:55;;;;;;;46.55;14.65;;;;;;;-2.27;100.00;101976.13;5224322;28;20028;-78
2022/03/05 07:00:25;;;;;;;43.42;16.17;;;;;;;-2.17;100.00;101975.72;5224430;28;20104;-77
2022/03/05 07:02:56;;;;;;;47.90;16.38;;;;;;;-2.08;100.00;101974.53;5224703;28;20070;-77
2022/03/05 07:05:26;;;;;;;49.55;17.40;;;;;;;-1.94;100.00;101963.50;5224032;28;20412;-78
2022/03/05 07:07:57;;;;;;;43.13;17.17;;;;;;;-1.68;100.00;101970.38;5224432;28;20059;-78
2022/03/05 07:10:27;;;;;;;43.75;16.15;;;;;;;-1.40;100.00;101976.28;5224103;28;20108;-78
2022/03/05 07:12:58;;;;;;;52.33;16.38;;;;;;;-1.03;100.00;101987.91;5224646;28;20036;-80
2022/03/05 07:15:28;;;;;;;46.42;15.60;;;;;;;-0.52;100.00;101986.59;5224387;28;20032;-77
2022/03/05 07:17:59;;;;;;;39.22;15.45;;;;;;;0.11;100.00;101994.34;5224655;28;20021;-77
2022/03/05 07:20:29;;;;;;;42.38;16.83;;;;;;;0.63;100.00;101997.13;5224938;28;20112;-80
2022/03/05 07:22:59;;;;;;;41.40;16.30;;;;;;;1.15;100.00;101990.13;5223820;28;20036;-80
2022/03/05 07:25:36;;;;;;;41.92;15.93;;;;;;;1.64;100.00;102003.47;5224853;28;20031;-80
2022/03/05 07:28:08;;;;;;;39.08;15.35;;;;;;;2.16;100.00;101998.03;5225738;28;20040;-80
2022/03/05 07:30:39;;;;;;;37.50;16.27;;;;;;;2.68;100.00;101999.56;5225032;28;20025;-79
2022/03/05 07:33:10;;;;;;;39.90;17.08;;;;;;;3.09;100.00;101991.88;5225207;28;20028;-78
2022/03/05 07:35:41;;;;;;;40.17;16.77;;;;;;;3.47;100.00;101991.41;5223831;28;20033;-78
2022/03/05 07:38:11;;;;;;;43.30;17.77;;;;;;;4.01;100.00;101995.09;5233031;28;20035;-79
2022/03/05 07:40:41;;;;;;;45.17;16.55;;;;;;;3.74;100.00;101991.50;5234632;28;20296;-79
2022/03/05 07:43:12;;;;;;;42.65;15.85;;;;;;;3.39;100.00;101994.50;5235873;28;20047;-78
2022/03/05 07:45:43;;;;;;;48.15;17.30;;;;;;;3.52;100.00;102002.59;5235271;28;20133;-83
2022/03/05 07:48:14;;;;;;;48.80;18.17;;;;;;;3.90;100.00;101997.56;5234737;28;20041;-78
2022/03/05 07:50:48;;;;;;;41.00;16.67;;;;;;;4.10;100.00;102006.97;5236428;28;20502;-78
2022/03/05 07:53:18;;;;;;;44.97;16.77;;;;;;;4.13;100.00;102001.47;5233281;28;20051;-78
2022/03/05 07:55:49;;;;;;;45.95;17.75;;;;;;;4.12;100.00;102000.63;5235414;28;20040;-79
2022/03/05 07:58:19;;;;;;;43.08;17.67;;;;;;;4.15;100.00;102008.38;5236896;28;20032;-78
2022/03/05 08:00:50;;;;;;;43.47;18.35;;;;;;;4.40;100.00;102012.97;5231272;28;20052;-79
2022/03/05 08:03:20;;;;;;;42.22;18.30;;;;;;;4.70;100.00;102008.44;5230914;28;20020;-80
2022/03/05 08:05:51;;;;;;;51.17;18.35;;;;;;;4.98;100.00;102012.81;5230149;28;20025;-80
2022/03/05 08:08:21;;;;;;;45.17;18.48;;;;;;;5.16;100.00;102012.44;5232791;28;20043;-82
2022/03/05 08:10:52;;;;;;;44.28;19.77;;;;;;;5.25;100.00;102016.28;5235512;28;20047;-82
2022/03/05 08:13:22;;;;;;;47.38;19.48;;;;;;;5.31;100.00;102023.84;5232557;28;20556;-82
2022/03/05 08:15:53;;;;;;;45.05;19.02;;;;;;;5.54;100.00;102018.78;5232342;28;20020;-83
2022/03/05 08:18:23;;;;;;;47.15;19.50;;;;;;;5.52;100.00;102029.53;5232420;28;20013;-81
2022/03/05 08:20:54;;;;;;;46.10;18.75;;;;;;;5.51;100.00;102030.47;5230374;28;20033;-80
2022/03/05 08:23:24;;;;;;;43.65;19.73;;;;;;;5.67;100.00;102031.16;5229235;28;20509;-80
2022/03/05 08:25:55;;;;;;;40.65;18.40;;;;;;;5.56;100.00;102030.16;5228811;28;20029;-80
2022/03/05 08:28:25;;;;;;;44.05;19.73;;;;;;;5.49;100.00;102032.41;5229249;28;20561;-80
2022/03/05 08:30:56;;;;;;;45.20;20.27;;;;;;;5.56;100.00;102038.16;5232733;28;20040;-78
2022/03/05 08:33:26;;;;;;;48.72;20.70;;;;;;;5.80;100.00;102031.16;5218326;28;20076;-80
2022/03/05 08:35:57;;;;;;;47.55;21.08;;;;;;;6.03;100.00;102034.06;5223908;28;20033;-78
2022/03/05 08:38:31;;;;;;;48.75;21.23;;;;;;;6.37;100.00;102035.16;5228080;28;20032;-80
2022/03/05 08:41:03;;;;;;;46.83;19.65;;;;;;;6.56;100.00;102034.69;5228359;28;20104;-82
2022/03/05 08:43:34;;;;;;;39.28;20.55;;;;;;;6.77;100.00;102035.78;5226018;28;20379;-78
2022/03/05 08:46:05;;;;;;;47.97;21.50;;;;;;;6.93;100.00;102039.06;5227486;28;20606;-80
2022/03/05 08:48:36;;;;;;;47.25;20.77;;;;;;;7.16;100.00;102044.47;5226222;28;20123;-79
2022/03/05 08:51:07;;;;;;;42.70;18.30;;;;;;;7.83;100.00;102038.47;5227474;28;20116;-79
2022/03/05 08:53:37;;;;;;;40.10;19.67;;;;;;;7.92;100.00;102045.78;5227756;28;20087;-79
2022/03/05 08:56:08;;;;;;;39.80;19.98;;;;;;;8.11;100.00;102045.19;5227086;28;20021;-79
2022/03/05 08:58:39;;;;;;;47.95;20.45;;;;;;;8.05;100.00;102036.69;5227623;28;20029;-79
2022/03/05 09:01:09;;;;;;;40.42;20.25;;;;;;;7.47;100.00;102038.50;5226345;28;20029;-79
2022/03/05 09:03:41;;;;;;;43.45;20.88;;;;;;;7.31;100.00;102034.47;5227256;28;20029;-79
2022/03/05 09:06:11;;;;;;;49.45;20.60;;;;;;;7.04;100.00;102040.06;5226805;28;20021;-77
2022/03/05 09:08:42;;;;;;;43.75;20.35;;;;;;;7.95;100.00;102046.38;5226937;28;20549;-79
2022/03/05 09:11:12;;;;;;;48.22;22.27;;;;;;;7.89;100.00;102041.53;5225009;28;20029;-78
2022/03/05 09:13:42;;;;;;;52.28;20.90;;;;;;;8.01;100.00;102043.22;5226492;28;20027;-79
2022/03/05 09:16:13;;;;;;;43.08;20.60;;;;;;;7.91;100.00;102039.56;5226220;28;20112;-79
2022/03/05 09:18:43;;;;;;;49.97;22.13;;;;;;;8.10;100.00;102043.50;5225928;28;20020;-79
2022/03/05 09:21:14;;;;;;;44.72;21.15;;;;;;;8.41;100.00;102045.44;5225361;28;20461;-79
2022/03/05 09:23:44;;;;;;;45.85;21.88;;;;;;;9.19;94.79;102048.94;5226170;28;20035;-79
2022/03/05 09:26:15;;;;;;;48.03;21.80;;;;;;;8.97;100.00;102044.47;5225963;28;20103;-79
2022/03/05 09:28:46;;;;;;;45.53;21.27;;;;;;;9.11;100.00;102052.22;5226347;28;20032;-79
2022/03/05 09:31:17;;;;;;;53.25;23.48;;;;;;;9.33;100.00;102051.28;5226292;28;20033;-79
2022/03/05 09:33:47;;;;;;;47.88;22.05;;;;;;;9.12;98.52;102051.25;5228735;28;20086;-79
2022/03/05 09:36:18;;;;;;;45.20;21.65;;;;;;;9.45;100.00;102049.41;5217044;28;20025;-79
2022/03/05 09:38:48;;;;;;;40.33;20.83;;;;;;;10.01;87.73;102051.72;5227439;28;20036;-79
2022/03/05 09:41:19;;;;;;;44.20;22.35;;;;;;;9.82;95.78;102044.44;5226156;28;20029;-79
2022/03/05 09:43:50;;;;;;;51.13;23.00;;;;;;;9.43;94.07;102051.34;5224986;28;20103;-79
2022/03/05 09:46:22;;;;;;;44.63;22.67;;;;;;;8.95;91.80;102051.81;5225721;28;20132;-79
2022/03/05 09:48:53;;;;;;;42.58;21.42;;;;;;;9.46;99.92;102049.28;5226038;28;20129;-79
2022/03/05 09:51:24;;;;;;;44.80;21.55;;;;;;;10.58;75.74;102051.13;5225976;28;20511;-79
2022/03/05 09:53:56;;;;;;;47.45;21.75;;;;;;;10.20;84.35;102040.25;5226132;28;20024;-79
2022/03/05 09:56:28;;;;;;;48.45;22.85;;;;;;;9.29;88.29;102041.81;5225592;28;20423;-79
2022/03/05 09:58:59;;;;;;;44.17;22.27;;;;;;;9.41;93.64;102045.28;5226003;28;20040;-76
2022/03/05 10:01:30;;;;;;;49.25;22.67;;;;;;;10.05;96.44;102037.09;5227135;28;20498;-81
2022/03/05 10:04:02;;;;;;;47.75;22.98;;;;;;;10.38;90.56;102046.69;5226612;28;20510;-76
2022/03/05 10:06:32;;;;;;;45.15;23.48;;;;;;;10.53;91.16;102053.38;5225090;28;20036;-76
2022/03/05 10:09:20;;;;;;;49.35;21.88;;;;;;;10.96;78.73;102044.16;5225629;28;20021;-76
2022/03/05 10:11:50;;;;;;;48.10;21.98;;;;;;;11.17;67.45;102043.19;5225232;28;20388;-76
2022/03/05 10:14:21;;;;;;;47.22;23.52;;;;;;;10.96;68.08;102044.16;5224958;28;20039;-77
2022/03/05 10:17:00;;;;;;;50.60;22.45;;;;;;;10.15;82.55;102042.50;5224887;28;20025;-77
2022/03/05 10:19:31;;;;;;;46.03;21.95;;;;;;;9.98;80.81;102049.31;5225117;28;20392;-80
2022/03/05 10:22:05;;;;;;;47.10;21.92;;;;;;;9.73;84.43;102039.84;5225764;28;20021;-78
2022/03/05 10:24:38;;;;;;;53.22;22.42;;;;;;;9.73;79.82;102040.69;5224962;28;20017;-78
2022/03/05 10:27:09;;;;;;;45.72;21.80;;;;;;;9.50;89.98;102045.34;5225885;28;20111;-78
2022/03/05 10:29:40;;;;;;;51.70;23.83;;;;;;;9.15;92.25;102047.47;5230068;28;20056;-78
2022/03/05 10:32:12;;;;;;;52.00;22.50;;;;;;;8.93;94.78;102043.88;5231846;28;20086;-78
2022/03/05 10:34:42;;;;;;;46.80;22.63;;;;;;;9.23;100.00;102050.34;5225606;28;20114;-79
2022/03/05 10:37:12;;;;;;;51.85;22.55;;;;;;;9.57;88.48;102046.53;5227882;28;20041;-78
2022/03/05 10:39:43;;;;;;;45.33;21.60;;;;;;;9.68;85.26;102047.44;5227015;28;20021;-79
2022/03/05 10:42:37;;;;;;;53.85;23.63;;;;;;;9.49;98.61;102042.81;5219034;28;20017;-79
2022/03/05 10:45:11;;;;;;;52.33;23.58;;;;;;;9.64;91.15;102046.00;5221996;28;20047;-79
2022/03/05 10:47:46;;;;;;;51.83;23.25;;;;;;;9.63;91.03;102047.81;5222276;28;20155;-79
2022/03/05 10:50:33;;;;;;;47.20;23.13;;;;;;;9.63;86.24;102052.34;5223187;28;20021;-79
2022/03/05 10:53:04;;;;;;;54.95;22.75;;;;;;;9.45;91.84;102041.38;5211091;28;20120;-79
2022/03/05 10:55:37;;;;;;;50.80;22.67;;;;;;;9.15;89.03;102037.59;5223101;28;20717;-79
2022/03/05 10:58:14;;;;;;;46.08;22.25;;;;;;;8.80;87.75;102032.50;5222230;28;20021;-79
2022/03/05 11:00:49;;;;;;;52.30;23.38;;;;;;;8.96;93.67;102040.09;5225931;28;20021;-79
2022/03/05 11:03:20;;;;;;;49.50;21.63;;;;;;;9.51;97.83;102035.50;5225397;28;20488;-79
2022/03/05 11:05:51;;;;;;;52.97;23.85;;;;;;;9.28;86.84;102034.75;5223787;28;20079;-79
2022/03/05 11:08:21;;;;;;;51.67;23.33;;;;;;;9.25;88.17;102032.34;5225360;28;20089;-80
2022/03/05 11:10:52;;;;;;;48.90;23.05;;;;;;;9.49;93.83;102035.63;5224981;28;20021;-80
2022/03/05 11:13:24;;;;;;;56.67;24.00;;;;;;;9.88;91.29;102037.69;5223791;28;20025;-80
2022/03/05 11:15:54;;;;;;;49.25;22.08;;;;;;;9.88;89.09;102033.16;5223234;28;20459;-81
2022/03/05 11:18:25;;;;;;;53.20;24.60;;;;;;;9.52;81.21;102038.03;5222272;28;20029;-81
2022/03/05 11:20:56;;;;;;;53.70;23.00;;;;;;;9.32;82.91;102037.03;5223772;28;20037;-81
2022/03/05 11:23:27;;;;;;;47.83;21.77;;;;;;;9.79;90.88;102037.50;5215396;28;20112;-80
2022/03/05 11:25:59;;;;;;;51.15;23.67;;;;;;;9.92;84.35;102039.13;5222862;28;20430;-78
2022/03/05 11:28:48;;;;;;;48.20;23.60;;;;;;;10.00;83.67;102032.13;5221749;28;20041;-78
2022/03/05 11:31:33;;;;;;;40.50;21.88;;;;;;;10.31;88.08;102032.97;5222669;28;20033;-78
2022/03/05 11:34:17;;;;;;;47.10;23.00;;;;;;;10.59;88.08;102034.06;5227005;28;20009;-78
2022/03/05 11:36:50;;;;;;;51.67;24.30;;;;;;;10.26;81.27;102037.91;5221391;28;20035;-79